Forside
METAR-TAF:

METAR-TAF

Lufthavne :

Hagåtña, Guam, USA

Breddekreds: 13-29N, længdekreds: 144-48E, højde: 91 m

Aktuelle vejr

Denne rapport blev lavet for 33 minutter siden, kl. 00:01 UTC
Vind 11 kt fra sydsydvest
Temperatur 28°C
Fugtighed 94%
Tryk 1006 hPa
Sigt: 16.1 km
Brudte skyer i en højde af 1900 ft
Brudte skyer i en højde af 2300 ft
let regn, dis

METAR: PGUM 210001Z 20011KT 10SM -RA BR BKN019 BKN023 28/27 A2970 RMK AO2 P0000 T02780267

Tid: 10:34 (00:34 UTC)

Vejrudsigter

Denne rapport blev lavet for 58 minutter siden, kl. 23:36 UTC
Foreløbig gælder fra 21 på 00 UTC til 22 på 06 UTC
Vind 12 kt fra sydsydvest
Sigt: 10 km
Spredte skyer i en højde af 1400 ft
Spredte skyer i en højde af 2000 ft
Brudte skyer i en højde af 12000 ft
byger i nærheden
Fra 21 på 0300 UTC
Vind 13 kt fra sydsydvest
Sigt: 8.0 km
Spredte skyer i en højde af 1500 ft
Brudte skyer i en højde af 3000 ft
Overskyet i en højde af 9000 ft
regnbyger

TAF: PGUM 202336Z 2100/2206 20012KT P6SM VCSH SCT014 SCT020 BKN120 FM210300 20013KT 5SM SHRA SCT015 BKN030 OVC090

Vejrobservationer og prognoser fra mere end 4000 lufthavne (METAR og TAF).

De gule og røde prikker repræsenterer de meteorologiske stationer.

Flyt musen over at se navnet på stationen.

Så klik over at se vejr observationer og prognoser.

At skifte det kort: Klik på de grønne knapper med et sort kors for at zoome ind; på den grønne knap med en bindestreg for at zoome ud; eller på de grønne pile for tilstødende kort.


METAR-TAF: